旭川 の空港の天気 - METARとTAF

旭川空港 ( RJEC / AKJ ) - 北海道旭川市
飛行場実況気象(Metar)
観測時間10/24 18:00 JST (10/24 09:00 UTC)
風向・風速南 6m/s
視程10km以上
天気現象
少しの雲 雲底高度 610m
全天の4割程度の雲 雲底高度 1520m
全天の8割程度の雲 雲底高度 1830m
気温8℃
湿度42%
気圧995hPa
METARRJEC 240900Z 19012KT 120V210 9999 FEW020 SCT050 BKN060 08/M04 Q0995
過去の天気等 Google飛行場航空写真 Wunderground天気予報

過去48時間のMETAR

飛行場予報(TAF)
発表時間: 10/24 14:07 JST (10/24 05:07 UTC)
予報対象時間: 24日15時 JST ~ 25日21時 JST
風向・風速南南西 9m/s
視程10km以上
少しの雲 雲底高度 610m
全天の8割程度の雲 雲底高度 1220m
24日15時 JST ~ 24日24時 JST に一時的に
風向・風速南南西 10m/s 瞬間風速 15m/s
25日3時 JST ~ 25日9時 JST に一時的に
視程4000m
天気現象しゅう雨 もや
少しの雲 雲底高度 150m
全天の8割程度の雲 雲底高度 240m
25日15時 JST ~ 25日18時 JST に徐々に
風向・風速南 3m/s
TAF RJEC 240507Z 2406/2512 21018KT 9999 FEW020 BKN040
TEMPO 2406/2415 21020G30KT
TEMPO 2418/2500 4000 SHRA BR FEW005 BKN008
BECMG 2506/2509 19005KT
日本の空港のMETAR・TAFへのリンク

RJTT 東京国際空港
RJAA 新東京国際空港
RJBB 関西国際空港
RJOO 大阪空港
RJGG 中部国際空港
RJCC 新千歳空港
RJFF 福岡空港
ROAH 那覇空港


RJEC 旭川空港
RJCH 函館空港
RJCK 釧路空港
RJCM 女満別空港
RJCB 帯広空港
RJSA 青森空港
RJSS 仙台空港
RJSK 秋田空港
RJSF 福島空港
RJAH 茨城空港
RJSN 新潟空港
RJNT 富山空港
RJNK 小松飛行場
RJNS 静岡空港
RJOH 美保飛行場
RJOC 出雲空港
RJOB 岡山空港
RJOA 広島空港
RJOI 岩国飛行場
RJOT 高松空港
RJOM 松山空港
RJOK 高知空港
RJFR 北九州空港
RJFT 熊本空港
RJFU 長崎空港
RJFS 佐賀空港
RJFO 大分空港
RJFM 宮崎空港
RJFK 鹿児島空港
ROIG 石垣島空港
RJTY 横田飛行場
ROTM 普天間飛行場
RODN 嘉手納飛行場